Terminal Aerodrome Forecast
Issued by NWS Detroit/Pontiac, MI

Home | Current Version | Previous Version | Text Only | Print | Product List | Glossary On
Versions: 1 2 3 4 5 6 7 8 9 10 11 12 13 14 15 16 17 18 19 20 21 22 23 24 25 26 27 28 29 30 31 32 33 34 35
000
FTUS43 KDTX 221329 AAB
TAFDTW
TAF AMD
KDTW 221329Z 2213/2318 08005KT 1/4SM -SHRA FG OVC001
     FM221400 08005KT 1/2SM -SHRA FG OVC002
     FM221500 13007KT 1 1/2SM -SHRA BR OVC004
     FM221700 16010KT 6SM -SHRA BR BKN070 OVC100
     FM222200 18010KT P6SM -SHRA BKN040
     FM230800 23008KT 3SM -SHRA OVC015=

USA.gov is the U.S. government's official web portal to all federal, state and local government web resources and services.